Jacksonville, FL (32216)

11:14 AM EDT on July 27, 2016 (GMT -0400)
Southside | | Change Station

Elev 33 ft 30.28 °N, 81.58 °W | Updated 12 seconds ago

Clear
Clear
88.0 °F
Feels Like 84 °F
N
1.1
Wind Variable Wind from WNW
Gusts 2.5 mph

Today
High -- | Low -- °F
--% Chance of Precip.
Yesterday
High -- | Low -- °F
Precip. -- in
Pressure 30.10 in
Visibility 10.0 miles
Clouds Clear
Heat Index 84 °F
Dew Point 41 °F
Humidity 19%
Rainfall 0.00 in
Snow Depth Not available.
6:42 AM 8:23 PM
Last Quarter, 42% visible
METAR KCRG 271453Z VRB04KT 10SM CLR 32/22 A3010 RMK AO2 SLP193 T03170217 51006
Pressure 30.10 in
Visibility 10.0 miles
Clouds Clear
Heat Index 84 °F
Dew Point 41 °F
Humidity 19%
Rainfall 0.00 in
Snow Depth Not available.
6:42 AM 8:23 PM
Last Quarter, 42% visible
METAR KCRG 271453Z VRB04KT 10SM CLR 32/22 A3010 RMK AO2 SLP193 T03170217 51006

10-Day Weather Forecast

Almanac

Astronomy

Jul. 27, 2016 Rise Set
Actual Time
Civil Twilight
Nautical Twilight
Astronomical Twilight
Moon
Length of Visible Light
Length of Day
Tomorrow will be .
, % of the Moon is Illuminated

Today's Extremes

State Highs State Lows

Community

WunderPhotos

Upload Photos

1,927,858 photos uploaded!

WunderBlog® & News

Nearby

Air Quality

  Air Quality AQ Index Pollutant
Not available.

Snow Depth

Station Depth Elevation

Earthquake Activity

City Distance Mag. Time & Date
Minimum magnitude displayed is 2.5.

Coastal Water Temperatures

Place Temperature

Stations

Nearby Weather Stations

Station Location Temp. Windchill Dew Point Humidity Wind Precip. Elev Updated Type
                   

Watches & Warnings

There are currently no watches in effect.